Time;durP1;ratioP1;P1;durP2;ratioP2;P2;SDS_P1;SDS_P2;PMS_P1;PMS_P2;Temp;Humidity;BMP_temperature;BMP_pressure;BME280_temperature;BME280_humidity;BME280_pressure;Samples;Min_cycle;Max_cycle;Signal;HPM_P1;HPM_P2
2023/08/21 00:01:47;;;;;;;;;;;23.90;60.70;;;;;;8500739;27;20018;-52
2023/08/21 00:05:47;;;;;;;;;;;23.90;60.80;;;;;;8499443;27;20407;-50
2023/08/21 00:09:48;;;;;;;;;;;23.90;60.80;;;;;;8498917;27;19915;-51
2023/08/21 00:13:49;;;;;;;;;;;23.90;60.80;;;;;;8499668;27;19918;-49
2023/08/21 00:17:49;;;;;;;;;;;23.90;60.90;;;;;;8499417;27;20350;-49
2023/08/21 00:21:50;;;;;;;;;;;23.90;60.90;;;;;;8500037;27;19976;-48
2023/08/21 00:25:50;;;;;;;;;;;23.90;60.90;;;;;;8480705;27;19959;-50
2023/08/21 00:29:51;;;;;;;;;;;23.90;60.80;;;;;;8499823;27;19969;-50
2023/08/21 00:33:51;;;;;;;;;;;23.90;60.80;;;;;;8498531;27;19956;-50
2023/08/21 00:37:52;;;;;;;;;;;24.00;60.90;;;;;;8499507;27;20396;-48
2023/08/21 00:41:53;;;;;;;;;;;23.90;60.90;;;;;;8513836;27;20018;-49
2023/08/21 00:45:53;;;;;;;;;;;23.90;60.90;;;;;;8499136;27;19912;-49
2023/08/21 00:49:54;;;;;;;;;;;23.90;60.90;;;;;;8479609;27;20405;-51
2023/08/21 00:53:55;;;;;;;;;;;23.90;60.90;;;;;;8499142;27;19914;-50
2023/08/21 00:57:55;;;;;;;;;;;23.90;60.80;;;;;;8498763;27;19912;-50
2023/08/21 01:01:56;;;;;;;;;;;23.90;60.80;;;;;;8498262;27;19922;-50
2023/08/21 01:05:56;;;;;;;;;;;24.00;60.90;;;;;;8499110;27;20387;-53
2023/08/21 01:09:57;;;;;;;;;;;23.90;60.80;;;;;;8479178;27;19914;-49
2023/08/21 01:14:01;;;;;;;;;;;24.00;60.90;;;;;;8498796;27;19908;-49
2023/08/21 01:18:02;;;;;;;;;;;23.90;60.80;;;;;;8496857;27;19920;-51
2023/08/21 01:22:02;;;;;;;;;;;23.90;60.80;;;;;;8498125;27;19922;-52
2023/08/21 01:26:04;;;;;;;;;;;23.90;60.80;;;;;;8497107;27;19911;-50
2023/08/21 01:30:06;;;;;;;;;;;23.90;60.80;;;;;;8498068;27;19972;-49
2023/08/21 01:34:09;;;;;;;;;;;23.90;60.80;;;;;;8478852;27;20288;-52
2023/08/21 01:38:10;;;;;;;;;;;24.00;60.90;;;;;;8497401;27;20378;-49
2023/08/21 01:42:11;;;;;;;;;;;23.90;60.80;;;;;;8496935;27;19958;-51
2023/08/21 01:46:12;;;;;;;;;;;23.90;60.80;;;;;;8497424;27;19912;-51
2023/08/21 01:50:12;;;;;;;;;;;23.90;60.90;;;;;;8497577;27;19908;-49
2023/08/21 01:54:13;;;;;;;;;;;23.90;60.90;;;;;;8496262;27;19911;-51
2023/08/21 01:58:13;;;;;;;;;;;23.90;60.90;;;;;;8497336;27;19908;-51
2023/08/21 02:02:14;;;;;;;;;;;23.90;60.90;;;;;;8495712;27;19915;-50
2023/08/21 02:06:15;;;;;;;;;;;23.90;60.90;;;;;;8497262;27;19911;-51
2023/08/21 02:10:15;;;;;;;;;;;23.90;61.70;;;;;;8495782;27;19920;-51
2023/08/21 02:14:16;;;;;;;;;;;23.90;60.90;;;;;;8496817;28;20327;-50
2023/08/21 02:18:16;;;;;;;;;;;23.90;60.90;;;;;;8496604;28;19923;-50
2023/08/21 02:22:17;;;;;;;;;;;23.90;60.90;;;;;;8495866;28;19916;-51
2023/08/21 02:26:19;;;;;;;;;;;23.90;60.90;;;;;;8478262;27;19912;-49
2023/08/21 02:30:20;;;;;;;;;;;23.90;60.90;;;;;;8495559;28;20296;-50
2023/08/21 02:34:20;;;;;;;;;;;23.90;60.90;;;;;;8501823;27;20002;-51
2023/08/21 02:38:21;;;;;;;;;;;23.90;60.90;;;;;;8502124;27;20254;-50
2023/08/21 02:42:21;;;;;;;;;;;23.90;60.90;;;;;;8503381;27;20428;-49
2023/08/21 02:46:22;;;;;;;;;;;23.90;60.90;;;;;;8501941;27;19912;-52
2023/08/21 02:50:22;;;;;;;;;;;23.90;61.70;;;;;;8503448;27;19911;-49
2023/08/21 02:54:23;;;;;;;;;;;23.90;60.90;;;;;;8502623;27;19961;-50
2023/08/21 02:58:23;;;;;;;;;;;23.90;61.60;;;;;;8502694;27;19911;-49
2023/08/21 03:02:24;;;;;;;;;;;23.90;60.80;;;;;;8501158;27;19916;-51
2023/08/21 03:06:25;;;;;;;;;;;23.90;60.90;;;;;;8501234;27;19911;-51
2023/08/21 03:10:26;;;;;;;;;;;23.90;60.80;;;;;;8517688;27;20441;-50
2023/08/21 03:14:27;;;;;;;;;;;23.90;60.90;;;;;;8501423;27;19919;-49
2023/08/21 03:18:30;;;;;;;;;;;24.00;60.90;;;;;;8502615;27;19924;-52
2023/08/21 03:22:34;;;;;;;;;;;23.90;60.90;;;;;;8500886;27;20326;-51
2023/08/21 03:26:34;;;;;;;;;;;23.90;60.90;;;;;;8502128;27;19908;-50
2023/08/21 03:30:35;;;;;;;;;;;23.90;60.90;;;;;;8500347;27;20006;-49
2023/08/21 03:34:35;;;;;;;;;;;23.90;61.00;;;;;;8501667;27;20530;-51
2023/08/21 03:38:36;;;;;;;;;;;23.90;60.90;;;;;;8500224;27;19919;-50
2023/08/21 03:42:36;;;;;;;;;;;23.90;61.00;;;;;;8499979;27;19919;-49
2023/08/21 03:46:37;;;;;;;;;;;23.90;61.00;;;;;;8499985;27;19908;-49
2023/08/21 03:50:38;;;;;;;;;;;23.90;61.00;;;;;;8499416;27;20479;-50
2023/08/21 03:54:38;;;;;;;;;;;23.90;61.00;;;;;;8501532;27;19915;-51
2023/08/21 03:58:39;;;;;;;;;;;23.90;61.00;;;;;;8500004;27;20419;-49
2023/08/21 04:02:39;;;;;;;;;;;23.90;60.90;;;;;;8500670;27;19923;-49
2023/08/21 04:06:40;;;;;;;;;;;23.90;60.90;;;;;;8499448;27;19911;-49
2023/08/21 04:10:41;;;;;;;;;;;23.90;60.90;;;;;;8500567;27;19919;-50
2023/08/21 04:14:42;;;;;;;;;;;23.90;60.90;;;;;;8499059;27;19907;-50
2023/08/21 04:18:43;;;;;;;;;;;23.90;60.90;;;;;;8500098;27;20424;-50
2023/08/21 04:22:43;;;;;;;;;;;23.90;61.00;;;;;;8499297;27;19916;-50
2023/08/21 04:26:44;;;;;;;;;;;23.90;60.90;;;;;;8500260;27;19918;-50
2023/08/21 04:30:44;;;;;;;;;;;23.90;60.90;;;;;;8498931;27;20432;-49
2023/08/21 04:34:45;;;;;;;;;;;23.90;60.90;;;;;;8499098;27;19911;-50
2023/08/21 04:38:45;;;;;;;;;;;23.90;60.90;;;;;;8499662;27;19907;-50
2023/08/21 04:42:46;;;;;;;;;;;23.90;60.90;;;;;;8498902;27;20395;-51
2023/08/21 04:46:48;;;;;;;;;;;23.90;60.90;;;;;;8499336;27;19911;-50
2023/08/21 04:50:48;;;;;;;;;;;23.90;60.90;;;;;;8498073;27;20404;-51
2023/08/21 04:54:49;;;;;;;;;;;23.90;60.90;;;;;;8498643;27;20298;-51
2023/08/21 04:58:49;;;;;;;;;;;23.90;60.90;;;;;;8497795;27;19912;-52
2023/08/21 05:02:50;;;;;;;;;;;23.90;60.90;;;;;;8498686;27;19999;-49
2023/08/21 05:06:51;;;;;;;;;;;23.90;60.90;;;;;;8497964;27;19947;-52
2023/08/21 05:10:57;;;;;;;;;;;23.90;60.90;;;;;;8498290;27;20555;-51
2023/08/21 05:14:58;;;;;;;;;;;23.90;60.90;;;;;;8498562;27;19907;-49
2023/08/21 05:18:59;;;;;;;;;;;23.90;60.90;;;;;;8496956;27;20060;-49
2023/08/21 05:22:59;;;;;;;;;;;23.90;61.00;;;;;;8498211;27;19916;-51
2023/08/21 05:27:00;;;;;;;;;;;23.90;61.00;;;;;;8496883;27;20390;-51
2023/08/21 05:31:00;;;;;;;;;;;23.90;61.00;;;;;;8498061;27;19911;-50
2023/08/21 05:35:01;;;;;;;;;;;23.90;61.00;;;;;;8496860;27;19912;-51
2023/08/21 05:39:02;;;;;;;;;;;23.90;61.00;;;;;;8497635;27;19912;-49
2023/08/21 05:43:05;;;;;;;;;;;23.90;61.00;;;;;;8496577;27;20421;-50
2023/08/21 05:47:05;;;;;;;;;;;23.90;61.00;;;;;;8497470;27;20284;-50
2023/08/21 05:51:06;;;;;;;;;;;23.90;61.00;;;;;;8496987;27;19994;-51
2023/08/21 05:55:06;;;;;;;;;;;23.90;61.00;;;;;;8497231;27;19915;-51
2023/08/21 05:59:09;;;;;;;;;;;23.90;60.90;;;;;;8479006;27;19968;-49
2023/08/21 06:03:10;;;;;;;;;;;23.90;61.00;;;;;;8495641;27;19918;-52
2023/08/21 06:07:11;;;;;;;;;;;23.90;61.00;;;;;;8497375;27;20371;-52
2023/08/21 06:11:12;;;;;;;;;;;23.90;61.00;;;;;;8495664;27;19911;-49
2023/08/21 06:15:12;;;;;;;;;;;23.90;61.00;;;;;;8512773;27;19918;-50
2023/08/21 06:19:13;;;;;;;;;;;23.90;61.00;;;;;;8495635;28;19930;-50
2023/08/21 06:23:13;;;;;;;;;;;23.90;61.00;;;;;;8496688;28;19911;-49
2023/08/21 06:27:14;;;;;;;;;;;23.90;60.90;;;;;;8496168;27;19916;-48
2023/08/21 06:31:14;;;;;;;;;;;23.90;60.90;;;;;;8496377;28;20006;-51
2023/08/21 06:35:16;;;;;;;;;;;23.90;60.90;;;;;;8495866;28;19918;-51
2023/08/21 06:39:16;;;;;;;;;;;23.90;61.00;;;;;;8496120;28;19951;-49
2023/08/21 06:43:17;;;;;;;;;;;23.90;61.00;;;;;;8497122;28;19923;-51
2023/08/21 06:47:17;;;;;;;;;;;23.90;60.90;;;;;;8495278;28;19919;-49
2023/08/21 06:51:18;;;;;;;;;;;23.90;60.90;;;;;;8496374;28;19960;-52
2023/08/21 06:55:19;;;;;;;;;;;23.90;60.90;;;;;;8495846;27;19921;-48
2023/08/21 06:59:20;;;;;;;;;;;23.90;61.20;;;;;;8496179;28;20003;-49
2023/08/21 07:03:20;;;;;;;;;;;23.90;61.00;;;;;;8495063;28;19911;-51
2023/08/21 07:07:21;;;;;;;;;;;23.90;61.00;;;;;;8495868;28;19912;-50
2023/08/21 07:11:21;;;;;;;;;;;23.90;61.00;;;;;;8495384;28;19918;-50
2023/08/21 07:15:22;;;;;;;;;;;23.90;61.00;;;;;;8495580;28;19908;-49
2023/08/21 07:19:22;;;;;;;;;;;23.90;61.00;;;;;;8498217;27;19923;-51
2023/08/21 07:23:23;;;;;;;;;;;23.90;61.00;;;;;;8501622;27;19937;-49
2023/08/21 07:27:23;;;;;;;;;;;23.90;61.00;;;;;;8484261;27;20415;-50
2023/08/21 07:31:24;;;;;;;;;;;23.90;61.00;;;;;;8500203;27;19919;-50
2023/08/21 07:35:25;;;;;;;;;;;23.90;61.00;;;;;;8501972;27;19919;-49
2023/08/21 07:39:25;;;;;;;;;;;23.90;61.00;;;;;;8500543;27;19919;-50
2023/08/21 07:43:26;;;;;;;;;;;23.90;61.00;;;;;;8501328;27;19916;-51
2023/08/21 07:47:27;;;;;;;;;;;23.90;61.00;;;;;;8500071;27;19907;-51
2023/08/21 07:51:27;;;;;;;;;;;23.90;61.00;;;;;;8501390;27;20364;-52
2023/08/21 07:55:28;;;;;;;;;;;23.90;61.00;;;;;;8500666;27;19933;-50
2023/08/21 07:59:28;;;;;;;;;;;23.90;61.00;;;;;;8500282;27;19911;-51
2023/08/21 08:03:29;;;;;;;;;;;23.90;61.00;;;;;;8500104;27;19965;-49
2023/08/21 08:07:29;;;;;;;;;;;23.90;61.00;;;;;;8500033;27;20384;-52
2023/08/21 08:11:30;;;;;;;;;;;23.90;60.90;;;;;;8500825;27;19908;-49
2023/08/21 08:15:31;;;;;;;;;;;23.90;60.90;;;;;;8498724;27;19907;-50
2023/08/21 08:19:31;;;;;;;;;;;23.90;60.90;;;;;;8500198;27;20436;-49
2023/08/21 08:23:32;;;;;;;;;;;23.90;60.90;;;;;;8499108;27;19912;-49
2023/08/21 08:27:32;;;;;;;;;;;23.90;60.90;;;;;;8500164;27;19911;-50
2023/08/21 08:31:33;;;;;;;;;;;23.90;60.90;;;;;;8497300;27;19953;-50
2023/08/21 08:35:33;;;;;;;;;;;23.90;60.90;;;;;;8499022;27;19919;-49
2023/08/21 08:39:34;;;;;;;;;;;23.90;61.00;;;;;;8498093;27;19915;-49
2023/08/21 08:43:37;;;;;;;;;;;23.90;61.00;;;;;;8498759;27;19961;-51
2023/08/21 08:47:39;;;;;;;;;;;23.90;61.00;;;;;;8499692;27;19907;-49
2023/08/21 08:51:40;;;;;;;;;;;23.90;61.00;;;;;;8498236;27;19911;-50
2023/08/21 08:55:41;;;;;;;;;;;23.90;61.00;;;;;;8499425;27;19960;-50
2023/08/21 08:59:41;;;;;;;;;;;23.90;61.00;;;;;;8497718;27;19907;-49
2023/08/21 09:03:42;;;;;;;;;;;23.90;61.00;;;;;;8499403;27;19919;-50
2023/08/21 09:07:45;;;;;;;;;;;23.90;61.00;;;;;;8497517;27;20015;-49
2023/08/21 09:11:51;;;;;;;;;;;23.90;61.00;;;;;;8498895;27;19998;-50
2023/08/21 09:15:55;;;;;;;;;;;23.90;60.90;;;;;;8497252;27;19923;-50
2023/08/21 09:20:02;;;;;;;;;;;23.90;60.90;;;;;;8497436;27;19919;-50
2023/08/21 09:24:03;;;;;;;;;;;23.90;61.00;;;;;;8498789;27;19947;-50
2023/08/21 09:28:05;;;;;;;;;;;23.90;60.90;;;;;;8497273;27;19919;-51
2023/08/21 09:32:06;;;;;;;;;;;23.90;60.90;;;;;;8498341;27;20010;-52
2023/08/21 09:36:09;;;;;;;;;;;23.90;60.90;;;;;;8496844;27;19937;-52
2023/08/21 09:40:11;;;;;;;;;;;23.90;61.00;;;;;;8497690;27;20368;-50
2023/08/21 09:44:12;;;;;;;;;;;23.90;60.90;;;;;;8495890;27;20300;-50
2023/08/21 09:48:13;;;;;;;;;;;23.90;61.00;;;;;;8497706;27;19912;-50
2023/08/21 09:52:14;;;;;;;;;;;23.90;60.90;;;;;;8496873;27;19907;-50
2023/08/21 09:56:14;;;;;;;;;;;23.90;60.90;;;;;;8497056;27;19956;-49
2023/08/21 10:00:15;;;;;;;;;;;23.90;60.90;;;;;;8478648;27;19911;-50
2023/08/21 10:04:16;;;;;;;;;;;23.90;60.90;;;;;;8496084;27;19912;-50
2023/08/21 10:08:21;;;;;;;;;;;23.90;60.90;;;;;;8497413;27;19912;-51
2023/08/21 10:12:21;;;;;;;;;;;23.90;60.90;;;;;;8495743;27;20357;-51
2023/08/21 10:16:22;;;;;;;;;;;23.90;60.90;;;;;;8496749;28;19946;-49
2023/08/21 10:20:24;;;;;;;;;;;23.90;60.90;;;;;;8495726;28;19915;-50
2023/08/21 10:24:28;;;;;;;;;;;23.90;60.90;;;;;;8497200;27;19946;-52
2023/08/21 10:28:42;;;;;;;;;;;23.90;60.90;;;;;;8496149;28;19998;-51
2023/08/21 10:32:46;;;;;;;;;;;23.90;60.90;;;;;;8496166;28;19907;-52
2023/08/21 10:37:03;;;;;;;;;;;23.90;61.80;;;;;;8496834;28;19915;-51
2023/08/21 10:41:04;;;;;;;;;;;23.90;60.90;;;;;;8477043;28;20329;-49
2023/08/21 10:45:11;;;;;;;;;;;23.90;60.90;;;;;;8496577;28;19912;-49
2023/08/21 10:49:12;;;;;;;;;;;23.90;60.90;;;;;;8495256;28;20540;-49
2023/08/21 10:53:13;;;;;;;;;;;23.90;60.90;;;;;;8498813;27;20280;-50
2023/08/21 10:57:14;;;;;;;;;;;23.90;60.90;;;;;;8502456;27;19919;-49
2023/08/21 11:01:15;;;;;;;;;;;23.90;60.90;;;;;;8502287;27;19918;-51
2023/08/21 11:05:16;;;;;;;;;;;23.90;60.90;;;;;;8503044;27;19914;-51
2023/08/21 11:09:16;;;;;;;;;;;23.90;60.80;;;;;;8501173;27;19914;-50
2023/08/21 11:13:17;;;;;;;;;;;23.90;60.80;;;;;;8502767;27;20002;-49
2023/08/21 11:17:23;;;;;;;;;;;23.90;60.80;;;;;;8500906;27;19975;-50
2023/08/21 11:21:25;;;;;;;;;;;23.90;60.80;;;;;;8502104;27;19911;-49
2023/08/21 11:25:25;;;;;;;;;;;24.00;60.90;;;;;;8501216;27;19915;-52
2023/08/21 11:29:26;;;;;;;;;;;23.90;60.80;;;;;;8502094;27;20376;-51
2023/08/21 11:33:27;;;;;;;;;;;23.90;60.80;;;;;;8501086;27;19911;-50
2023/08/21 11:37:28;;;;;;;;;;;23.90;60.80;;;;;;8501144;27;19912;-49
2023/08/21 11:41:29;;;;;;;;;;;24.00;61.60;;;;;;8501433;27;19920;-50
2023/08/21 11:45:29;;;;;;;;;;;24.00;60.90;;;;;;8500107;27;19916;-51
2023/08/21 11:49:30;;;;;;;;;;;24.00;60.80;;;;;;8501510;27;20308;-50
2023/08/21 11:53:31;;;;;;;;;;;23.90;60.70;;;;;;8499675;27;19912;-51
2023/08/21 11:57:32;;;;;;;;;;;23.90;60.80;;;;;;8501280;27;19997;-51
2023/08/21 12:01:33;;;;;;;;;;;24.00;60.80;;;;;;8499712;27;19911;-49
2023/08/21 12:05:33;;;;;;;;;;;24.00;60.90;;;;;;8501147;27;20428;-51
2023/08/21 12:09:34;;;;;;;;;;;24.00;60.90;;;;;;8499647;27;19918;-49
2023/08/21 12:13:34;;;;;;;;;;;24.00;60.90;;;;;;8500743;27;19960;-52
2023/08/21 12:17:35;;;;;;;;;;;23.90;60.70;;;;;;8499648;27;19919;-51
2023/08/21 12:21:37;;;;;;;;;;;24.00;60.80;;;;;;8499714;27;19923;-51
2023/08/21 12:25:38;;;;;;;;;;;24.00;60.70;;;;;;8500427;27;20364;-49
2023/08/21 12:29:38;;;;;;;;;;;24.00;60.70;;;;;;8498557;27;20292;-49
2023/08/21 12:33:39;;;;;;;;;;;24.00;60.70;;;;;;8500227;27;19915;-51
2023/08/21 12:37:39;;;;;;;;;;;24.00;60.70;;;;;;8514468;27;19976;-50
2023/08/21 12:41:40;;;;;;;;;;;24.00;60.70;;;;;;8499615;27;20048;-51
2023/08/21 12:45:40;;;;;;;;;;;24.00;60.70;;;;;;8498291;27;20011;-51
2023/08/21 12:49:41;;;;;;;;;;;24.00;60.70;;;;;;8499633;27;19912;-52
2023/08/21 12:53:42;;;;;;;;;;;24.00;60.70;;;;;;8497982;27;20292;-51
2023/08/21 12:57:42;;;;;;;;;;;24.00;60.70;;;;;;8499978;27;19911;-49
2023/08/21 13:01:43;;;;;;;;;;;24.00;60.70;;;;;;8498036;27;19923;-48
2023/08/21 13:05:43;;;;;;;;;;;24.00;60.70;;;;;;8498291;27;19912;-51
2023/08/21 13:09:44;;;;;;;;;;;24.00;60.70;;;;;;8498527;27;20218;-50
2023/08/21 13:13:44;;;;;;;;;;;24.00;60.70;;;;;;8497865;27;19912;-51
2023/08/21 13:17:45;;;;;;;;;;;24.00;60.70;;;;;;8497615;27;19921;-50
2023/08/21 13:21:45;;;;;;;;;;;24.00;60.70;;;;;;8496947;27;20392;-49
2023/08/21 13:25:46;;;;;;;;;;;24.00;60.60;;;;;;8498334;27;19943;-51
2023/08/21 13:29:46;;;;;;;;;;;24.00;60.60;;;;;;8496450;27;20067;-49
2023/08/21 13:33:47;;;;;;;;;;;24.00;60.60;;;;;;8498235;27;19907;-51
2023/08/21 13:37:48;;;;;;;;;;;24.00;60.60;;;;;;8496641;27;20376;-51
2023/08/21 13:41:50;;;;;;;;;;;24.10;60.60;;;;;;8497116;27;20365;-49
2023/08/21 13:45:50;;;;;;;;;;;24.10;60.60;;;;;;8498313;27;19916;-51
2023/08/21 13:49:51;;;;;;;;;;;24.10;60.60;;;;;;8496317;27;19911;-50
2023/08/21 13:53:51;;;;;;;;;;;24.00;60.60;;;;;;8497450;27;19916;-50
2023/08/21 13:57:52;;;;;;;;;;;24.00;60.50;;;;;;8496466;27;19912;-51
2023/08/21 14:01:52;;;;;;;;;;;24.00;60.50;;;;;;8497380;27;19912;-51
2023/08/21 14:05:53;;;;;;;;;;;24.00;60.50;;;;;;8495745;27;20392;-49
2023/08/21 14:09:53;;;;;;;;;;;24.00;60.50;;;;;;8497048;27;19907;-50
2023/08/21 14:13:54;;;;;;;;;;;24.10;60.60;;;;;;8496003;27;19912;-49
2023/08/21 14:17:55;;;;;;;;;;;24.10;60.60;;;;;;8495258;28;19924;-51
2023/08/21 14:21:57;;;;;;;;;;;24.00;60.50;;;;;;8495914;28;19915;-52
2023/08/21 14:25:57;;;;;;;;;;;24.10;60.50;;;;;;8497003;27;19907;-52
2023/08/21 14:29:58;;;;;;;;;;;24.10;60.60;;;;;;8502115;27;19912;-53
2023/08/21 14:33:59;;;;;;;;;;;24.10;60.60;;;;;;8502626;27;20272;-49
2023/08/21 14:38:00;;;;;;;;;;;24.10;60.60;;;;;;8503342;27;19916;-51
2023/08/21 14:42:01;;;;;;;;;;;24.10;60.60;;;;;;8502347;27;19920;-50
2023/08/21 14:46:04;;;;;;;;;;;24.10;60.60;;;;;;8503521;27;20003;-50
2023/08/21 14:50:05;;;;;;;;;;;24.10;60.50;;;;;;8501935;27;20288;-51
2023/08/21 14:54:06;;;;;;;;;;;24.10;60.60;;;;;;8503172;27;19992;-49
2023/08/21 14:58:09;;;;;;;;;;;24.10;60.50;;;;;;8502467;27;19915;-51
2023/08/21 15:02:09;;;;;;;;;;;24.10;60.50;;;;;;8502110;27;20340;-50
2023/08/21 15:06:10;;;;;;;;;;;24.10;60.50;;;;;;8502773;27;19911;-51
2023/08/21 15:10:11;;;;;;;;;;;24.10;60.50;;;;;;8501325;27;19918;-51
2023/08/21 15:14:11;;;;;;;;;;;24.10;60.60;;;;;;8502458;27;20354;-49
2023/08/21 15:18:12;;;;;;;;;;;24.10;60.50;;;;;;8501348;27;20020;-49
2023/08/21 15:22:12;;;;;;;;;;;24.10;60.50;;;;;;8518107;27;19960;-50
2023/08/21 15:26:13;;;;;;;;;;;24.10;60.50;;;;;;8502247;27;19950;-50
2023/08/21 15:30:14;;;;;;;;;;;24.10;60.50;;;;;;8502631;27;19918;-52
2023/08/21 15:34:15;;;;;;;;;;;24.10;60.50;;;;;;8500892;27;19914;-49
2023/08/21 15:38:15;;;;;;;;;;;24.10;60.50;;;;;;8501347;27;19912;-49
2023/08/21 15:42:16;;;;;;;;;;;24.10;60.50;;;;;;8500782;27;19967;-50
2023/08/21 15:46:16;;;;;;;;;;;24.10;60.50;;;;;;8501386;27;19958;-50
2023/08/21 15:50:19;;;;;;;;;;;24.10;60.50;;;;;;8501697;27;20364;-49
2023/08/21 15:54:20;;;;;;;;;;;24.10;60.60;;;;;;8499835;27;19908;-49
2023/08/21 15:58:20;;;;;;;;;;;24.10;60.50;;;;;;8501956;27;19916;-49
2023/08/21 16:02:21;;;;;;;;;;;24.10;60.50;;;;;;8499743;27;19918;-49
2023/08/21 16:06:21;;;;;;;;;;;24.10;60.60;;;;;;8500916;27;20303;-49
2023/08/21 16:10:22;;;;;;;;;;;24.10;60.50;;;;;;8499520;27;19964;-52
2023/08/21 16:14:22;;;;;;;;;;;24.10;60.50;;;;;;8500673;27;19964;-50
2023/08/21 16:18:23;;;;;;;;;;;24.10;60.50;;;;;;8499479;27;19923;-50
2023/08/21 16:22:23;;;;;;;;;;;24.10;60.50;;;;;;8499702;27;19922;-49
2023/08/21 16:26:24;;;;;;;;;;;24.10;60.50;;;;;;8499997;27;20460;-49
2023/08/21 16:30:24;;;;;;;;;;;24.10;60.60;;;;;;8499477;27;19915;-50
2023/08/21 16:34:25;;;;;;;;;;;24.10;60.50;;;;;;8500312;27;20418;-49
2023/08/21 16:38:26;;;;;;;;;;;24.10;60.60;;;;;;8498666;27;19922;-50
2023/08/21 16:42:26;;;;;;;;;;;24.10;60.60;;;;;;8500071;27;19915;-53
2023/08/21 16:46:27;;;;;;;;;;;24.10;60.60;;;;;;8498203;27;20342;-48
2023/08/21 16:50:27;;;;;;;;;;;24.10;60.50;;;;;;8498924;27;19911;-49
2023/08/21 16:54:28;;;;;;;;;;;24.10;60.40;;;;;;8498890;27;20424;-51
2023/08/21 16:58:28;;;;;;;;;;;24.10;60.50;;;;;;8499524;27;19907;-51
2023/08/21 17:02:29;;;;;;;;;;;24.10;60.50;;;;;;8498613;27;19979;-50
2023/08/21 17:06:29;;;;;;;;;;;24.10;60.50;;;;;;8498730;27;19922;-52
2023/08/21 17:10:30;;;;;;;;;;;24.10;60.50;;;;;;8498792;27;19939;-49
2023/08/21 17:14:30;;;;;;;;;;;24.10;60.40;;;;;;8498168;27;19920;-47
2023/08/21 17:18:31;;;;;;;;;;;24.10;60.40;;;;;;8499000;27;19975;-49
2023/08/21 17:22:32;;;;;;;;;;;24.10;60.50;;;;;;8497326;27;19953;-51
2023/08/21 17:26:32;;;;;;;;;;;24.10;60.50;;;;;;8499392;27;19912;-50
2023/08/21 17:30:34;;;;;;;;;;;24.10;60.40;;;;;;8497334;27;19911;-51
2023/08/21 17:34:34;;;;;;;;;;;24.10;60.40;;;;;;8498425;27;19912;-50
2023/08/21 17:38:35;;;;;;;;;;;24.10;60.40;;;;;;8496911;27;19919;-50
2023/08/21 17:42:35;;;;;;;;;;;24.10;60.40;;;;;;8532278;27;19915;-51
2023/08/21 17:46:36;;;;;;;;;;;24.10;60.40;;;;;;8531680;27;19907;-51
2023/08/21 17:50:36;;;;;;;;;;;24.10;60.40;;;;;;8531689;27;19939;-50
2023/08/21 17:54:37;;;;;;;;;;;24.10;60.50;;;;;;8529650;27;19922;-50
2023/08/21 17:58:38;;;;;;;;;;;24.10;60.50;;;;;;8497008;27;19914;-49
2023/08/21 18:02:38;;;;;;;;;;;24.10;60.50;;;;;;8497182;27;19920;-52
2023/08/21 18:06:39;;;;;;;;;;;24.10;60.50;;;;;;8477826;27;19912;-49
2023/08/21 18:10:39;;;;;;;;;;;24.10;61.20;;;;;;8496977;27;19915;-51
2023/08/21 18:14:40;;;;;;;;;;;24.10;60.50;;;;;;8496181;27;19922;-50
2023/08/21 18:18:42;;;;;;;;;;;24.10;60.50;;;;;;8496972;28;19923;-51
2023/08/21 18:22:42;;;;;;;;;;;24.10;60.50;;;;;;8495597;28;19918;-51
2023/08/21 18:26:43;;;;;;;;;;;24.10;60.50;;;;;;8497361;27;19911;-50
2023/08/21 18:30:43;;;;;;;;;;;24.10;60.50;;;;;;8495987;28;19919;-50
2023/08/21 18:34:44;;;;;;;;;;;24.10;60.50;;;;;;8496176;28;19960;-49
2023/08/21 18:38:44;;;;;;;;;;;24.10;60.50;;;;;;8496256;28;19985;-50
2023/08/21 18:42:45;;;;;;;;;;;24.10;60.60;;;;;;8495838;28;19912;-51
2023/08/21 18:46:45;;;;;;;;;;;24.10;60.60;;;;;;8496507;28;19912;-52
2023/08/21 18:50:46;;;;;;;;;;;24.10;60.60;;;;;;8495086;28;19918;-49
2023/08/21 18:54:46;;;;;;;;;;;24.10;60.70;;;;;;8478278;27;19953;-50
2023/08/21 18:58:47;;;;;;;;;;;24.10;60.50;;;;;;8495167;28;20610;-51
2023/08/21 19:02:47;;;;;;;;;;;24.10;60.70;;;;;;8477788;28;19939;-49
2023/08/21 19:06:50;;;;;;;;;;;24.10;60.60;;;;;;8495056;28;20376;-51
2023/08/21 19:10:50;;;;;;;;;;;24.10;60.90;;;;;;8496145;28;20439;-51
2023/08/21 19:14:51;;;;;;;;;;;24.10;60.90;;;;;;8497664;27;20269;-51
2023/08/21 19:18:51;;;;;;;;;;;24.10;60.80;;;;;;8501278;27;19981;-51
2023/08/21 19:22:52;;;;;;;;;;;24.10;60.70;;;;;;8501405;27;19915;-51
2023/08/21 19:26:53;;;;;;;;;;;24.20;60.70;;;;;;8500931;27;19911;-50
2023/08/21 19:30:54;;;;;;;;;;;24.20;60.70;;;;;;8501908;27;20007;-50
2023/08/21 19:34:57;;;;;;;;;;;24.20;60.60;;;;;;8482325;27;20428;-51
2023/08/21 19:38:58;;;;;;;;;;;24.20;60.50;;;;;;8502069;27;19998;-52
2023/08/21 19:42:58;;;;;;;;;;;24.20;60.60;;;;;;8500235;27;19915;-50
2023/08/21 19:47:00;;;;;;;;;;;24.20;60.60;;;;;;8501555;27;19911;-51
2023/08/21 19:51:00;;;;;;;;;;;24.20;60.60;;;;;;8500444;27;20336;-50
2023/08/21 19:55:01;;;;;;;;;;;24.20;60.50;;;;;;8501581;27;19911;-51
2023/08/21 19:59:03;;;;;;;;;;;24.20;60.50;;;;;;8500369;27;20014;-51
2023/08/21 20:03:03;;;;;;;;;;;24.20;60.50;;;;;;8499994;27;19912;-50
2023/08/21 20:07:10;;;;;;;;;;;24.20;60.50;;;;;;8500615;27;20361;-51
2023/08/21 20:11:10;;;;;;;;;;;24.20;60.60;;;;;;8499180;27;20336;-51
2023/08/21 20:15:11;;;;;;;;;;;24.20;60.70;;;;;;8500696;27;19915;-51
2023/08/21 20:19:11;;;;;;;;;;;24.20;60.60;;;;;;8499207;27;20376;-49
2023/08/21 20:23:12;;;;;;;;;;;24.10;60.60;;;;;;8500801;27;20435;-51
2023/08/21 20:27:13;;;;;;;;;;;24.10;60.70;;;;;;8499326;27;19933;-49
2023/08/21 20:31:13;;;;;;;;;;;24.10;60.80;;;;;;8500272;27;20015;-51
2023/08/21 20:35:14;;;;;;;;;;;24.10;60.90;;;;;;8499518;27;20334;-50
2023/08/21 20:39:14;;;;;;;;;;;24.10;60.90;;;;;;8499111;27;20131;-50
2023/08/21 20:43:15;;;;;;;;;;;24.10;60.80;;;;;;8499127;27;19911;-49
2023/08/21 20:47:15;;;;;;;;;;;24.10;60.70;;;;;;8480762;27;20344;-51
2023/08/21 20:51:16;;;;;;;;;;;24.10;60.70;;;;;;8500640;27;19915;-52
2023/08/21 20:55:17;;;;;;;;;;;24.10;60.70;;;;;;8498519;27;19919;-50
2023/08/21 20:59:17;;;;;;;;;;;24.10;60.70;;;;;;8499522;27;20377;-48
2023/08/21 21:03:18;;;;;;;;;;;24.10;60.80;;;;;;8497719;27;19968;-49
2023/08/21 21:07:20;;;;;;;;;;;24.10;60.70;;;;;;8498865;27;19918;-50
2023/08/21 21:11:21;;;;;;;;;;;24.10;60.70;;;;;;8497543;27;19922;-51
2023/08/21 21:15:21;;;;;;;;;;;24.10;60.70;;;;;;8498915;27;20368;-50
2023/08/21 21:19:22;;;;;;;;;;;24.10;60.70;;;;;;8497790;27;19926;-50
2023/08/21 21:23:22;;;;;;;;;;;24.10;60.70;;;;;;8497789;27;20534;-50
2023/08/21 21:27:23;;;;;;;;;;;24.10;60.70;;;;;;8498475;27;19911;-51
2023/08/21 21:31:24;;;;;;;;;;;24.10;60.70;;;;;;8497904;27;20376;-51
2023/08/21 21:35:26;;;;;;;;;;;24.10;60.70;;;;;;8497365;27;20193;-49
2023/08/21 21:39:26;;;;;;;;;;;24.10;60.70;;;;;;8496269;27;19911;-49
2023/08/21 21:43:27;;;;;;;;;;;24.10;60.70;;;;;;8497957;27;19916;-49
2023/08/21 21:47:28;;;;;;;;;;;24.10;60.70;;;;;;8496568;27;20366;-49
2023/08/21 21:51:29;;;;;;;;;;;24.10;60.70;;;;;;8497704;27;19908;-52
2023/08/21 21:55:30;;;;;;;;;;;24.10;60.70;;;;;;8478560;27;19918;-50
2023/08/21 21:59:30;;;;;;;;;;;24.10;60.70;;;;;;8497418;27;20411;-50
2023/08/21 22:03:31;;;;;;;;;;;24.10;60.70;;;;;;8512897;27;20330;-49
2023/08/21 22:07:32;;;;;;;;;;;24.10;60.70;;;;;;8496505;27;20211;-50
2023/08/21 22:11:32;;;;;;;;;;;24.10;60.80;;;;;;8497143;27;19907;-50
2023/08/21 22:15:36;;;;;;;;;;;24.10;60.90;;;;;;8495679;27;19960;-49
2023/08/21 22:19:37;;;;;;;;;;;24.10;60.90;;;;;;8497207;27;19926;-50
2023/08/21 22:23:38;;;;;;;;;;;24.10;60.90;;;;;;8495558;28;19923;-49
2023/08/21 22:27:38;;;;;;;;;;;24.10;60.90;;;;;;8502214;27;19960;-50
2023/08/21 22:31:39;;;;;;;;;;;24.10;61.70;;;;;;8495694;28;19962;-49
2023/08/21 22:35:39;;;;;;;;;;;24.10;60.80;;;;;;8496564;28;20376;-51
2023/08/21 22:39:40;;;;;;;;;;;24.10;60.90;;;;;;8496124;28;19954;-48
2023/08/21 22:43:41;;;;;;;;;;;24.10;60.80;;;;;;8496168;28;19919;-51
2023/08/21 22:47:41;;;;;;;;;;;24.10;60.80;;;;;;8496126;27;19919;-51
2023/08/21 22:51:42;;;;;;;;;;;24.10;60.80;;;;;;8501559;27;19912;-49
2023/08/21 22:55:51;;;;;;;;;;;24.10;60.80;;;;;;8503649;27;19911;-52
2023/08/21 22:59:51;;;;;;;;;;;24.10;60.90;;;;;;8517734;27;20293;-51
2023/08/21 23:03:53;;;;;;;;;;;24.10;60.90;;;;;;8502852;27;19916;-50
2023/08/21 23:07:54;;;;;;;;;;;24.10;60.90;;;;;;8501718;27;19915;-51
2023/08/21 23:11:54;;;;;;;;;;;24.10;60.90;;;;;;8502736;27;19957;-49
2023/08/21 23:15:55;;;;;;;;;;;24.10;60.90;;;;;;8501514;27;19919;-50
2023/08/21 23:19:55;;;;;;;;;;;24.10;60.90;;;;;;8502276;27;19911;-50